sensor_id;sensor_type;location;lat;lon;timestamp;P1;durP1;ratioP1;P2;durP2;ratioP2
23404;SDS011;11875;49.356;2.718;2022-12-11T00:01:12;40.17;;;19.67;;
23404;SDS011;11875;49.356;2.718;2022-12-11T00:03:40;46.43;;;20.20;;
23404;SDS011;11875;49.356;2.718;2022-12-11T00:06:07;39.27;;;19.47;;
23404;SDS011;11875;49.356;2.718;2022-12-11T00:08:34;39.60;;;18.67;;
23404;SDS011;11875;49.356;2.718;2022-12-11T00:11:00;40.10;;;19.07;;
23404;SDS011;11875;49.356;2.718;2022-12-11T00:13:26;36.97;;;19.20;;
23404;SDS011;11875;49.356;2.718;2022-12-11T00:15:52;38.97;;;17.97;;
23404;SDS011;11875;49.356;2.718;2022-12-11T00:18:18;42.30;;;18.63;;
23404;SDS011;11875;49.356;2.718;2022-12-11T00:20:43;40.80;;;18.50;;
23404;SDS011;11875;49.356;2.718;2022-12-11T00:23:09;44.50;;;18.57;;
23404;SDS011;11875;49.356;2.718;2022-12-11T00:25:45;36.57;;;17.43;;
23404;SDS011;11875;49.356;2.718;2022-12-11T00:28:13;62.67;;;28.17;;
23404;SDS011;11875;49.356;2.718;2022-12-11T00:30:41;38.40;;;17.70;;
23404;SDS011;11875;49.356;2.718;2022-12-11T00:33:07;46.10;;;20.20;;
23404;SDS011;11875;49.356;2.718;2022-12-11T00:35:36;39.50;;;19.57;;
23404;SDS011;11875;49.356;2.718;2022-12-11T00:38:03;40.80;;;19.30;;
23404;SDS011;11875;49.356;2.718;2022-12-11T00:40:28;42.33;;;19.37;;
23404;SDS011;11875;49.356;2.718;2022-12-11T00:42:57;40.33;;;19.00;;
23404;SDS011;11875;49.356;2.718;2022-12-11T00:45:22;36.13;;;18.37;;
23404;SDS011;11875;49.356;2.718;2022-12-11T00:47:48;39.23;;;18.53;;
23404;SDS011;11875;49.356;2.718;2022-12-11T00:50:14;41.37;;;18.73;;
23404;SDS011;11875;49.356;2.718;2022-12-11T00:52:39;43.83;;;19.67;;
23404;SDS011;11875;49.356;2.718;2022-12-11T00:55:05;47.10;;;19.07;;
23404;SDS011;11875;49.356;2.718;2022-12-11T00:57:31;43.03;;;17.93;;
23404;SDS011;11875;49.356;2.718;2022-12-11T00:59:57;43.40;;;19.40;;
23404;SDS011;11875;49.356;2.718;2022-12-11T01:02:22;42.90;;;18.93;;
23404;SDS011;11875;49.356;2.718;2022-12-11T01:04:48;47.87;;;20.30;;
23404;SDS011;11875;49.356;2.718;2022-12-11T01:07:14;48.90;;;21.60;;
23404;SDS011;11875;49.356;2.718;2022-12-11T01:09:39;47.37;;;21.50;;
23404;SDS011;11875;49.356;2.718;2022-12-11T01:12:24;43.90;;;19.50;;
23404;SDS011;11875;49.356;2.718;2022-12-11T01:14:52;50.93;;;20.83;;
23404;SDS011;11875;49.356;2.718;2022-12-11T01:17:18;41.93;;;19.23;;
23404;SDS011;11875;49.356;2.718;2022-12-11T01:19:44;42.53;;;18.97;;
23404;SDS011;11875;49.356;2.718;2022-12-11T01:22:10;48.77;;;20.20;;
23404;SDS011;11875;49.356;2.718;2022-12-11T01:24:36;47.00;;;21.07;;
23404;SDS011;11875;49.356;2.718;2022-12-11T01:27:02;42.30;;;20.13;;
23404;SDS011;11875;49.356;2.718;2022-12-11T01:29:28;49.43;;;20.63;;
23404;SDS011;11875;49.356;2.718;2022-12-11T01:31:54;47.53;;;22.10;;
23404;SDS011;11875;49.356;2.718;2022-12-11T01:34:19;43.80;;;20.43;;
23404;SDS011;11875;49.356;2.718;2022-12-11T01:36:45;50.13;;;20.77;;
23404;SDS011;11875;49.356;2.718;2022-12-11T01:39:11;42.13;;;19.70;;
23404;SDS011;11875;49.356;2.718;2022-12-11T01:41:38;44.83;;;20.90;;
23404;SDS011;11875;49.356;2.718;2022-12-11T01:45:00;41.57;;;20.23;;
23404;SDS011;11875;49.356;2.718;2022-12-11T01:46:55;42.63;;;19.80;;
23404;SDS011;11875;49.356;2.718;2022-12-11T01:49:22;44.00;;;19.00;;
23404;SDS011;11875;49.356;2.718;2022-12-11T01:54:20;43.80;;;19.03;;
23404;SDS011;11875;49.356;2.718;2022-12-11T01:56:48;42.53;;;19.80;;
23404;SDS011;11875;49.356;2.718;2022-12-11T01:59:16;45.30;;;21.10;;
23404;SDS011;11875;49.356;2.718;2022-12-11T02:01:55;49.63;;;22.33;;
23404;SDS011;11875;49.356;2.718;2022-12-11T02:04:27;46.20;;;22.03;;
23404;SDS011;11875;49.356;2.718;2022-12-11T02:06:53;45.60;;;19.63;;
23404;SDS011;11875;49.356;2.718;2022-12-11T02:09:21;46.47;;;20.30;;
23404;SDS011;11875;49.356;2.718;2022-12-11T02:17:09;36.70;;;18.10;;
23404;SDS011;11875;49.356;2.718;2022-12-11T02:28:48;38.43;;;17.83;;
23404;SDS011;11875;49.356;2.718;2022-12-11T02:31:17;38.30;;;18.77;;
23404;SDS011;11875;49.356;2.718;2022-12-11T02:34:07;46.07;;;21.27;;
23404;SDS011;11875;49.356;2.718;2022-12-11T02:36:36;40.73;;;18.33;;
23404;SDS011;11875;49.356;2.718;2022-12-11T02:39:05;43.70;;;19.83;;
23404;SDS011;11875;49.356;2.718;2022-12-11T02:41:33;40.83;;;18.20;;
23404;SDS011;11875;49.356;2.718;2022-12-11T02:44:01;39.97;;;18.00;;
23404;SDS011;11875;49.356;2.718;2022-12-11T02:46:28;34.83;;;15.73;;
23404;SDS011;11875;49.356;2.718;2022-12-11T02:48:55;34.03;;;15.17;;
23404;SDS011;11875;49.356;2.718;2022-12-11T02:51:28;42.33;;;17.30;;
23404;SDS011;11875;49.356;2.718;2022-12-11T02:53:56;36.40;;;16.30;;
23404;SDS011;11875;49.356;2.718;2022-12-11T02:56:31;41.13;;;17.83;;
23404;SDS011;11875;49.356;2.718;2022-12-11T02:59:02;40.10;;;17.13;;
23404;SDS011;11875;49.356;2.718;2022-12-11T03:01:33;37.97;;;17.00;;
23404;SDS011;11875;49.356;2.718;2022-12-11T03:03:58;41.70;;;17.70;;
23404;SDS011;11875;49.356;2.718;2022-12-11T03:06:26;33.87;;;15.50;;
23404;SDS011;11875;49.356;2.718;2022-12-11T03:08:57;33.33;;;15.40;;
23404;SDS011;11875;49.356;2.718;2022-12-11T03:11:23;36.37;;;15.67;;
23404;SDS011;11875;49.356;2.718;2022-12-11T03:13:48;35.97;;;17.40;;
23404;SDS011;11875;49.356;2.718;2022-12-11T03:19:11;32.97;;;14.33;;
23404;SDS011;11875;49.356;2.718;2022-12-11T03:24:29;36.60;;;16.10;;
23404;SDS011;11875;49.356;2.718;2022-12-11T03:30:18;34.87;;;14.53;;
23404;SDS011;11875;49.356;2.718;2022-12-11T03:32:46;32.53;;;14.40;;
23404;SDS011;11875;49.356;2.718;2022-12-11T03:35:24;36.33;;;13.90;;
23404;SDS011;11875;49.356;2.718;2022-12-11T03:37:53;35.70;;;14.63;;
23404;SDS011;11875;49.356;2.718;2022-12-11T03:40:24;27.93;;;13.57;;
23404;SDS011;11875;49.356;2.718;2022-12-11T03:42:55;34.67;;;15.87;;
23404;SDS011;11875;49.356;2.718;2022-12-11T03:45:22;33.30;;;14.50;;
23404;SDS011;11875;49.356;2.718;2022-12-11T03:47:50;32.97;;;15.27;;
23404;SDS011;11875;49.356;2.718;2022-12-11T03:50:17;36.33;;;15.27;;
23404;SDS011;11875;49.356;2.718;2022-12-11T03:52:46;35.33;;;15.13;;
23404;SDS011;11875;49.356;2.718;2022-12-11T03:55:13;29.20;;;14.10;;
23404;SDS011;11875;49.356;2.718;2022-12-11T03:57:41;31.10;;;13.63;;
23404;SDS011;11875;49.356;2.718;2022-12-11T04:00:08;31.60;;;13.47;;
23404;SDS011;11875;49.356;2.718;2022-12-11T04:02:39;33.13;;;13.13;;
23404;SDS011;11875;49.356;2.718;2022-12-11T04:05:05;32.97;;;14.73;;
23404;SDS011;11875;49.356;2.718;2022-12-11T04:07:31;32.77;;;14.80;;
23404;SDS011;11875;49.356;2.718;2022-12-11T04:09:57;35.50;;;14.20;;
23404;SDS011;11875;49.356;2.718;2022-12-11T04:12:23;24.63;;;11.70;;
23404;SDS011;11875;49.356;2.718;2022-12-11T04:14:49;28.40;;;12.10;;
23404;SDS011;11875;49.356;2.718;2022-12-11T04:17:30;26.97;;;13.17;;
23404;SDS011;11875;49.356;2.718;2022-12-11T04:20:19;23.03;;;10.03;;
23404;SDS011;11875;49.356;2.718;2022-12-11T04:23:03;25.07;;;12.13;;
23404;SDS011;11875;49.356;2.718;2022-12-11T04:25:49;18.57;;;9.77;;
23404;SDS011;11875;49.356;2.718;2022-12-11T04:28:14;25.80;;;12.67;;
23404;SDS011;11875;49.356;2.718;2022-12-11T04:30:46;25.90;;;12.07;;
23404;SDS011;11875;49.356;2.718;2022-12-11T04:33:13;23.07;;;11.13;;
23404;SDS011;11875;49.356;2.718;2022-12-11T04:35:39;24.00;;;11.73;;
23404;SDS011;11875;49.356;2.718;2022-12-11T04:38:05;23.90;;;12.03;;
23404;SDS011;11875;49.356;2.718;2022-12-11T04:40:30;25.33;;;13.10;;
23404;SDS011;11875;49.356;2.718;2022-12-11T04:42:56;27.13;;;13.10;;
23404;SDS011;11875;49.356;2.718;2022-12-11T04:45:22;29.67;;;13.40;;
23404;SDS011;11875;49.356;2.718;2022-12-11T04:47:47;24.47;;;12.77;;
23404;SDS011;11875;49.356;2.718;2022-12-11T04:50:13;23.50;;;11.63;;
23404;SDS011;11875;49.356;2.718;2022-12-11T04:52:40;21.73;;;10.77;;
23404;SDS011;11875;49.356;2.718;2022-12-11T04:55:06;27.17;;;13.37;;
23404;SDS011;11875;49.356;2.718;2022-12-11T04:57:32;24.40;;;12.90;;
23404;SDS011;11875;49.356;2.718;2022-12-11T04:59:58;24.97;;;12.13;;
23404;SDS011;11875;49.356;2.718;2022-12-11T05:02:24;21.87;;;10.20;;
23404;SDS011;11875;49.356;2.718;2022-12-11T05:04:50;19.70;;;10.00;;
23404;SDS011;11875;49.356;2.718;2022-12-11T05:07:16;22.03;;;10.90;;
23404;SDS011;11875;49.356;2.718;2022-12-11T05:09:42;19.97;;;9.33;;
23404;SDS011;11875;49.356;2.718;2022-12-11T05:12:07;18.47;;;9.40;;
23404;SDS011;11875;49.356;2.718;2022-12-11T05:14:33;26.67;;;10.50;;
23404;SDS011;11875;49.356;2.718;2022-12-11T05:16:59;21.73;;;10.97;;
23404;SDS011;11875;49.356;2.718;2022-12-11T05:19:25;23.33;;;11.67;;
23404;SDS011;11875;49.356;2.718;2022-12-11T05:21:51;21.60;;;10.20;;
23404;SDS011;11875;49.356;2.718;2022-12-11T05:24:17;20.73;;;10.20;;
23404;SDS011;11875;49.356;2.718;2022-12-11T05:26:43;22.00;;;10.17;;
23404;SDS011;11875;49.356;2.718;2022-12-11T05:29:08;24.47;;;10.33;;
23404;SDS011;11875;49.356;2.718;2022-12-11T05:31:34;22.43;;;10.60;;
23404;SDS011;11875;49.356;2.718;2022-12-11T05:34:00;22.67;;;11.60;;
23404;SDS011;11875;49.356;2.718;2022-12-11T05:36:30;29.37;;;13.83;;
23404;SDS011;11875;49.356;2.718;2022-12-11T05:38:57;27.43;;;11.80;;
23404;SDS011;11875;49.356;2.718;2022-12-11T05:41:26;21.37;;;10.53;;
23404;SDS011;11875;49.356;2.718;2022-12-11T05:43:53;19.73;;;10.27;;
23404;SDS011;11875;49.356;2.718;2022-12-11T05:46:20;23.17;;;11.77;;
23404;SDS011;11875;49.356;2.718;2022-12-11T05:48:48;22.37;;;11.00;;
23404;SDS011;11875;49.356;2.718;2022-12-11T05:51:15;25.67;;;10.57;;
23404;SDS011;11875;49.356;2.718;2022-12-11T05:53:43;21.67;;;10.27;;
23404;SDS011;11875;49.356;2.718;2022-12-11T05:56:14;24.00;;;10.97;;
23404;SDS011;11875;49.356;2.718;2022-12-11T05:58:42;24.53;;;10.67;;
23404;SDS011;11875;49.356;2.718;2022-12-11T06:01:09;22.20;;;10.70;;
23404;SDS011;11875;49.356;2.718;2022-12-11T06:03:43;24.17;;;10.67;;
23404;SDS011;11875;49.356;2.718;2022-12-11T06:06:09;22.60;;;10.33;;
23404;SDS011;11875;49.356;2.718;2022-12-11T06:08:35;23.83;;;9.57;;
23404;SDS011;11875;49.356;2.718;2022-12-11T06:11:01;19.13;;;9.63;;
23404;SDS011;11875;49.356;2.718;2022-12-11T06:13:28;18.60;;;9.10;;
23404;SDS011;11875;49.356;2.718;2022-12-11T06:15:54;16.97;;;9.00;;
23404;SDS011;11875;49.356;2.718;2022-12-11T06:18:20;18.70;;;9.13;;
23404;SDS011;11875;49.356;2.718;2022-12-11T06:20:45;14.27;;;8.07;;
23404;SDS011;11875;49.356;2.718;2022-12-11T06:23:11;16.33;;;7.43;;
23404;SDS011;11875;49.356;2.718;2022-12-11T06:25:37;20.87;;;9.43;;
23404;SDS011;11875;49.356;2.718;2022-12-11T06:28:03;17.63;;;8.17;;
23404;SDS011;11875;49.356;2.718;2022-12-11T06:30:29;18.77;;;8.83;;
23404;SDS011;11875;49.356;2.718;2022-12-11T06:32:56;17.03;;;8.77;;
23404;SDS011;11875;49.356;2.718;2022-12-11T06:35:22;19.73;;;8.67;;
23404;SDS011;11875;49.356;2.718;2022-12-11T06:37:48;16.03;;;8.33;;
23404;SDS011;11875;49.356;2.718;2022-12-11T06:40:14;15.20;;;8.40;;
23404;SDS011;11875;49.356;2.718;2022-12-11T06:42:40;17.60;;;8.57;;
23404;SDS011;11875;49.356;2.718;2022-12-11T06:45:06;16.67;;;8.57;;
23404;SDS011;11875;49.356;2.718;2022-12-11T06:47:32;17.93;;;8.93;;
23404;SDS011;11875;49.356;2.718;2022-12-11T06:49:58;18.30;;;8.77;;
23404;SDS011;11875;49.356;2.718;2022-12-11T06:52:25;17.03;;;9.17;;
23404;SDS011;11875;49.356;2.718;2022-12-11T06:54:53;18.40;;;8.30;;
23404;SDS011;11875;49.356;2.718;2022-12-11T06:57:20;16.00;;;8.73;;
23404;SDS011;11875;49.356;2.718;2022-12-11T06:59:46;19.07;;;9.33;;
23404;SDS011;11875;49.356;2.718;2022-12-11T07:02:13;15.73;;;7.63;;
23404;SDS011;11875;49.356;2.718;2022-12-11T07:04:40;21.20;;;9.10;;
23404;SDS011;11875;49.356;2.718;2022-12-11T07:07:06;18.97;;;8.67;;
23404;SDS011;11875;49.356;2.718;2022-12-11T07:09:32;20.83;;;9.00;;
23404;SDS011;11875;49.356;2.718;2022-12-11T07:11:58;16.27;;;8.83;;
23404;SDS011;11875;49.356;2.718;2022-12-11T07:14:24;20.07;;;9.37;;
23404;SDS011;11875;49.356;2.718;2022-12-11T07:16:49;17.50;;;9.20;;
23404;SDS011;11875;49.356;2.718;2022-12-11T07:19:15;19.77;;;9.20;;
23404;SDS011;11875;49.356;2.718;2022-12-11T07:21:41;18.67;;;8.90;;
23404;SDS011;11875;49.356;2.718;2022-12-11T07:24:07;16.07;;;8.63;;
23404;SDS011;11875;49.356;2.718;2022-12-11T07:26:33;20.70;;;9.00;;
23404;SDS011;11875;49.356;2.718;2022-12-11T07:28:59;19.30;;;9.73;;
23404;SDS011;11875;49.356;2.718;2022-12-11T07:31:26;19.00;;;8.67;;
23404;SDS011;11875;49.356;2.718;2022-12-11T07:33:53;17.13;;;9.40;;
23404;SDS011;11875;49.356;2.718;2022-12-11T07:36:21;16.00;;;8.00;;
23404;SDS011;11875;49.356;2.718;2022-12-11T07:38:47;20.37;;;8.53;;
23404;SDS011;11875;49.356;2.718;2022-12-11T07:41:13;16.70;;;8.17;;
23404;SDS011;11875;49.356;2.718;2022-12-11T07:43:40;18.07;;;8.80;;
23404;SDS011;11875;49.356;2.718;2022-12-11T07:46:07;17.70;;;8.93;;
23404;SDS011;11875;49.356;2.718;2022-12-11T07:48:42;13.73;;;6.63;;
23404;SDS011;11875;49.356;2.718;2022-12-11T07:51:11;16.23;;;7.60;;
23404;SDS011;11875;49.356;2.718;2022-12-11T07:53:41;20.47;;;9.77;;
23404;SDS011;11875;49.356;2.718;2022-12-11T07:56:11;16.80;;;8.10;;
23404;SDS011;11875;49.356;2.718;2022-12-11T07:58:37;19.30;;;9.13;;
23404;SDS011;11875;49.356;2.718;2022-12-11T08:01:10;23.57;;;9.57;;
23404;SDS011;11875;49.356;2.718;2022-12-11T08:03:37;18.47;;;7.87;;
23404;SDS011;11875;49.356;2.718;2022-12-11T08:06:03;21.13;;;9.30;;
23404;SDS011;11875;49.356;2.718;2022-12-11T08:08:30;19.00;;;8.77;;
23404;SDS011;11875;49.356;2.718;2022-12-11T08:10:59;16.93;;;8.77;;
23404;SDS011;11875;49.356;2.718;2022-12-11T08:13:28;19.93;;;9.07;;
23404;SDS011;11875;49.356;2.718;2022-12-11T08:15:55;21.40;;;9.37;;
23404;SDS011;11875;49.356;2.718;2022-12-11T08:18:20;20.33;;;10.23;;
23404;SDS011;11875;49.356;2.718;2022-12-11T08:20:46;18.33;;;7.97;;
23404;SDS011;11875;49.356;2.718;2022-12-11T08:23:12;21.87;;;10.00;;
23404;SDS011;11875;49.356;2.718;2022-12-11T08:25:38;19.37;;;9.87;;
23404;SDS011;11875;49.356;2.718;2022-12-11T08:28:03;20.57;;;9.37;;
23404;SDS011;11875;49.356;2.718;2022-12-11T08:30:29;19.50;;;9.93;;
23404;SDS011;11875;49.356;2.718;2022-12-11T08:32:55;15.67;;;7.83;;
23404;SDS011;11875;49.356;2.718;2022-12-11T08:35:21;17.77;;;8.40;;
23404;SDS011;11875;49.356;2.718;2022-12-11T08:37:47;20.17;;;8.90;;
23404;SDS011;11875;49.356;2.718;2022-12-11T08:40:13;18.50;;;8.93;;
23404;SDS011;11875;49.356;2.718;2022-12-11T08:42:38;17.23;;;8.00;;
23404;SDS011;11875;49.356;2.718;2022-12-11T08:45:04;17.27;;;7.37;;
23404;SDS011;11875;49.356;2.718;2022-12-11T08:47:30;15.40;;;7.80;;
23404;SDS011;11875;49.356;2.718;2022-12-11T08:49:56;17.00;;;8.07;;
23404;SDS011;11875;49.356;2.718;2022-12-11T08:52:22;19.83;;;8.33;;
23404;SDS011;11875;49.356;2.718;2022-12-11T08:54:48;21.10;;;9.27;;
23404;SDS011;11875;49.356;2.718;2022-12-11T08:57:13;18.10;;;8.17;;
23404;SDS011;11875;49.356;2.718;2022-12-11T08:59:39;17.37;;;8.10;;
23404;SDS011;11875;49.356;2.718;2022-12-11T09:02:05;18.43;;;8.03;;
23404;SDS011;11875;49.356;2.718;2022-12-11T09:04:31;18.83;;;9.13;;
23404;SDS011;11875;49.356;2.718;2022-12-11T09:06:56;16.47;;;7.70;;
23404;SDS011;11875;49.356;2.718;2022-12-11T09:09:22;18.53;;;8.60;;
23404;SDS011;11875;49.356;2.718;2022-12-11T09:11:48;18.47;;;7.97;;
23404;SDS011;11875;49.356;2.718;2022-12-11T09:14:14;21.47;;;9.17;;
23404;SDS011;11875;49.356;2.718;2022-12-11T09:16:40;18.60;;;8.50;;
23404;SDS011;11875;49.356;2.718;2022-12-11T09:19:07;18.97;;;8.93;;
23404;SDS011;11875;49.356;2.718;2022-12-11T09:21:36;19.97;;;8.90;;
23404;SDS011;11875;49.356;2.718;2022-12-11T09:24:02;17.50;;;8.83;;
23404;SDS011;11875;49.356;2.718;2022-12-11T09:26:28;17.83;;;8.20;;
23404;SDS011;11875;49.356;2.718;2022-12-11T09:28:54;18.37;;;7.83;;
23404;SDS011;11875;49.356;2.718;2022-12-11T09:33:48;15.77;;;6.83;;
23404;SDS011;11875;49.356;2.718;2022-12-11T09:36:14;19.90;;;8.57;;
23404;SDS011;11875;49.356;2.718;2022-12-11T09:38:40;19.10;;;8.00;;
23404;SDS011;11875;49.356;2.718;2022-12-11T09:41:16;18.17;;;7.80;;
23404;SDS011;11875;49.356;2.718;2022-12-11T09:46:24;15.43;;;5.93;;
23404;SDS011;11875;49.356;2.718;2022-12-11T09:48:52;14.10;;;7.10;;
23404;SDS011;11875;49.356;2.718;2022-12-11T09:53:50;16.93;;;7.40;;
23404;SDS011;11875;49.356;2.718;2022-12-11T09:56:21;15.37;;;5.77;;
23404;SDS011;11875;49.356;2.718;2022-12-11T10:07:00;17.83;;;8.53;;
23404;SDS011;11875;49.356;2.718;2022-12-11T10:12:36;17.10;;;7.10;;
23404;SDS011;11875;49.356;2.718;2022-12-11T10:15:13;14.90;;;7.20;;
23404;SDS011;11875;49.356;2.718;2022-12-11T10:17:46;15.13;;;8.00;;
23404;SDS011;11875;49.356;2.718;2022-12-11T10:20:27;11.17;;;6.20;;
23404;SDS011;11875;49.356;2.718;2022-12-11T10:23:00;16.23;;;7.60;;
23404;SDS011;11875;49.356;2.718;2022-12-11T10:25:31;16.60;;;7.50;;
23404;SDS011;11875;49.356;2.718;2022-12-11T10:28:22;15.77;;;7.50;;
23404;SDS011;11875;49.356;2.718;2022-12-11T10:33:42;15.30;;;7.60;;
23404;SDS011;11875;49.356;2.718;2022-12-11T10:36:30;15.03;;;7.90;;
23404;SDS011;11875;49.356;2.718;2022-12-11T10:38:59;14.67;;;7.47;;
23404;SDS011;11875;49.356;2.718;2022-12-11T10:41:59;19.87;;;8.50;;
23404;SDS011;11875;49.356;2.718;2022-12-11T10:44:20;14.03;;;6.60;;
23404;SDS011;11875;49.356;2.718;2022-12-11T10:46:59;29.73;;;12.53;;
23404;SDS011;11875;49.356;2.718;2022-12-11T10:49:29;13.07;;;6.80;;
23404;SDS011;11875;49.356;2.718;2022-12-11T10:51:57;16.07;;;8.00;;
23404;SDS011;11875;49.356;2.718;2022-12-11T10:57:05;16.53;;;7.90;;
23404;SDS011;11875;49.356;2.718;2022-12-11T11:04:48;24.20;;;12.30;;
23404;SDS011;11875;49.356;2.718;2022-12-11T11:07:18;49.53;;;26.30;;
23404;SDS011;11875;49.356;2.718;2022-12-11T11:09:49;21.37;;;9.23;;
23404;SDS011;11875;49.356;2.718;2022-12-11T11:12:22;19.87;;;8.43;;
23404;SDS011;11875;49.356;2.718;2022-12-11T11:17:27;16.60;;;8.67;;
23404;SDS011;11875;49.356;2.718;2022-12-11T11:19:55;16.90;;;8.20;;
23404;SDS011;11875;49.356;2.718;2022-12-11T11:22:23;22.30;;;10.47;;
23404;SDS011;11875;49.356;2.718;2022-12-11T11:24:55;21.23;;;9.53;;
23404;SDS011;11875;49.356;2.718;2022-12-11T11:30:04;24.77;;;13.00;;
23404;SDS011;11875;49.356;2.718;2022-12-11T11:32:41;35.13;;;18.27;;
23404;SDS011;11875;49.356;2.718;2022-12-11T11:37:35;23.23;;;11.77;;
23404;SDS011;11875;49.356;2.718;2022-12-11T11:42:52;25.60;;;12.83;;
23404;SDS011;11875;49.356;2.718;2022-12-11T11:45:25;22.23;;;11.20;;
23404;SDS011;11875;49.356;2.718;2022-12-11T11:48:21;23.03;;;11.47;;
23404;SDS011;11875;49.356;2.718;2022-12-11T11:50:54;30.07;;;14.10;;
23404;SDS011;11875;49.356;2.718;2022-12-11T11:53:29;25.30;;;12.47;;
23404;SDS011;11875;49.356;2.718;2022-12-11T11:58:38;30.83;;;14.50;;
23404;SDS011;11875;49.356;2.718;2022-12-11T12:01:13;19.33;;;10.63;;
23404;SDS011;11875;49.356;2.718;2022-12-11T12:03:41;37.03;;;16.23;;
23404;SDS011;11875;49.356;2.718;2022-12-11T12:09:09;27.03;;;13.30;;
23404;SDS011;11875;49.356;2.718;2022-12-11T12:14:40;18.83;;;10.77;;
23404;SDS011;11875;49.356;2.718;2022-12-11T12:20:10;23.73;;;11.70;;
23404;SDS011;11875;49.356;2.718;2022-12-11T12:30:42;26.50;;;11.67;;
23404;SDS011;11875;49.356;2.718;2022-12-11T12:36:44;22.70;;;10.97;;
23404;SDS011;11875;49.356;2.718;2022-12-11T12:47:43;24.47;;;12.00;;
23404;SDS011;11875;49.356;2.718;2022-12-11T12:50:12;26.27;;;13.30;;
23404;SDS011;11875;49.356;2.718;2022-12-11T12:52:41;24.80;;;12.43;;
23404;SDS011;11875;49.356;2.718;2022-12-11T12:57:44;25.27;;;12.33;;
23404;SDS011;11875;49.356;2.718;2022-12-11T13:00:24;23.20;;;12.83;;
23404;SDS011;11875;49.356;2.718;2022-12-11T13:03:18;23.30;;;12.17;;
23404;SDS011;11875;49.356;2.718;2022-12-11T13:08:30;24.37;;;12.47;;
23404;SDS011;11875;49.356;2.718;2022-12-11T13:11:11;22.67;;;11.87;;
23404;SDS011;11875;49.356;2.718;2022-12-11T13:13:43;28.53;;;14.67;;
23404;SDS011;11875;49.356;2.718;2022-12-11T13:16:26;22.90;;;11.37;;
23404;SDS011;11875;49.356;2.718;2022-12-11T13:18:58;42.67;;;22.13;;
23404;SDS011;11875;49.356;2.718;2022-12-11T13:23:53;19.50;;;11.57;;
23404;SDS011;11875;49.356;2.718;2022-12-11T13:26:27;22.03;;;11.53;;
23404;SDS011;11875;49.356;2.718;2022-12-11T13:28:55;22.47;;;11.60;;
23404;SDS011;11875;49.356;2.718;2022-12-11T13:36:48;24.33;;;11.40;;
23404;SDS011;11875;49.356;2.718;2022-12-11T13:39:18;25.57;;;12.30;;
23404;SDS011;11875;49.356;2.718;2022-12-11T13:41:45;21.97;;;12.07;;
23404;SDS011;11875;49.356;2.718;2022-12-11T13:44:23;28.07;;;14.83;;
23404;SDS011;11875;49.356;2.718;2022-12-11T13:46:56;32.97;;;16.73;;
23404;SDS011;11875;49.356;2.718;2022-12-11T13:49:27;22.93;;;11.60;;
23404;SDS011;11875;49.356;2.718;2022-12-11T13:51:58;25.07;;;12.03;;
23404;SDS011;11875;49.356;2.718;2022-12-11T13:54:25;23.07;;;13.13;;
23404;SDS011;11875;49.356;2.718;2022-12-11T13:56:55;20.73;;;11.57;;
23404;SDS011;11875;49.356;2.718;2022-12-11T13:59:23;27.60;;;13.00;;
23404;SDS011;11875;49.356;2.718;2022-12-11T14:01:57;28.17;;;14.90;;
23404;SDS011;11875;49.356;2.718;2022-12-11T14:04:37;23.07;;;13.10;;
23404;SDS011;11875;49.356;2.718;2022-12-11T14:07:05;23.50;;;12.70;;
23404;SDS011;11875;49.356;2.718;2022-12-11T14:09:36;24.03;;;12.97;;
23404;SDS011;11875;49.356;2.718;2022-12-11T14:12:11;23.33;;;12.40;;
23404;SDS011;11875;49.356;2.718;2022-12-11T14:14:42;22.97;;;12.00;;
23404;SDS011;11875;49.356;2.718;2022-12-11T14:17:13;23.87;;;11.83;;
23404;SDS011;11875;49.356;2.718;2022-12-11T14:19:46;29.93;;;15.03;;
23404;SDS011;11875;49.356;2.718;2022-12-11T14:22:20;25.43;;;12.43;;
23404;SDS011;11875;49.356;2.718;2022-12-11T14:24:55;25.93;;;12.93;;
23404;SDS011;11875;49.356;2.718;2022-12-11T14:27:23;24.43;;;12.30;;
23404;SDS011;11875;49.356;2.718;2022-12-11T14:29:50;30.37;;;12.67;;
23404;SDS011;11875;49.356;2.718;2022-12-11T14:32:20;31.33;;;16.87;;
23404;SDS011;11875;49.356;2.718;2022-12-11T14:34:49;27.63;;;13.20;;
23404;SDS011;11875;49.356;2.718;2022-12-11T14:37:16;22.33;;;11.50;;
23404;SDS011;11875;49.356;2.718;2022-12-11T14:42:14;23.27;;;12.60;;
23404;SDS011;11875;49.356;2.718;2022-12-11T14:45:00;18.37;;;10.00;;
23404;SDS011;11875;49.356;2.718;2022-12-11T14:47:40;20.83;;;12.03;;
23404;SDS011;11875;49.356;2.718;2022-12-11T14:50:13;24.23;;;12.17;;
23404;SDS011;11875;49.356;2.718;2022-12-11T14:52:55;25.07;;;12.00;;
23404;SDS011;11875;49.356;2.718;2022-12-11T14:55:25;23.53;;;12.43;;
23404;SDS011;11875;49.356;2.718;2022-12-11T14:57:55;24.27;;;12.27;;
23404;SDS011;11875;49.356;2.718;2022-12-11T15:00:24;34.83;;;16.57;;
23404;SDS011;11875;49.356;2.718;2022-12-11T15:02:56;116.60;;;52.47;;
23404;SDS011;11875;49.356;2.718;2022-12-11T15:05:48;30.10;;;13.83;;
23404;SDS011;11875;49.356;2.718;2022-12-11T15:08:19;27.30;;;14.33;;
23404;SDS011;11875;49.356;2.718;2022-12-11T15:11:08;29.93;;;16.03;;
23404;SDS011;11875;49.356;2.718;2022-12-11T15:13:50;23.23;;;12.27;;
23404;SDS011;11875;49.356;2.718;2022-12-11T15:16:21;25.50;;;13.03;;
23404;SDS011;11875;49.356;2.718;2022-12-11T15:18:49;24.97;;;14.23;;
23404;SDS011;11875;49.356;2.718;2022-12-11T15:21:17;22.03;;;11.70;;
23404;SDS011;11875;49.356;2.718;2022-12-11T15:26:12;21.07;;;11.43;;
23404;SDS011;11875;49.356;2.718;2022-12-11T15:28:38;33.17;;;17.60;;
23404;SDS011;11875;49.356;2.718;2022-12-11T15:33:56;24.70;;;12.63;;
23404;SDS011;11875;49.356;2.718;2022-12-11T15:38:56;19.57;;;10.30;;
23404;SDS011;11875;49.356;2.718;2022-12-11T15:41:22;25.00;;;12.23;;
23404;SDS011;11875;49.356;2.718;2022-12-11T15:43:49;23.47;;;11.90;;
23404;SDS011;11875;49.356;2.718;2022-12-11T15:46:20;24.00;;;12.23;;
23404;SDS011;11875;49.356;2.718;2022-12-11T15:48:46;30.00;;;16.47;;
23404;SDS011;11875;49.356;2.718;2022-12-11T15:51:13;24.13;;;13.73;;
23404;SDS011;11875;49.356;2.718;2022-12-11T15:53:39;26.63;;;14.23;;
23404;SDS011;11875;49.356;2.718;2022-12-11T15:56:05;31.10;;;12.93;;
23404;SDS011;11875;49.356;2.718;2022-12-11T15:58:35;28.37;;;14.17;;
23404;SDS011;11875;49.356;2.718;2022-12-11T16:01:02;30.03;;;15.67;;
23404;SDS011;11875;49.356;2.718;2022-12-11T16:03:28;29.60;;;15.37;;
23404;SDS011;11875;49.356;2.718;2022-12-11T16:05:53;28.87;;;14.87;;
23404;SDS011;11875;49.356;2.718;2022-12-11T16:08:20;33.83;;;18.53;;
23404;SDS011;11875;49.356;2.718;2022-12-11T16:10:47;31.10;;;16.50;;
23404;SDS011;11875;49.356;2.718;2022-12-11T16:13:15;32.37;;;16.23;;
23404;SDS011;11875;49.356;2.718;2022-12-11T16:15:41;27.90;;;12.77;;
23404;SDS011;11875;49.356;2.718;2022-12-11T16:18:09;32.90;;;14.30;;
23404;SDS011;11875;49.356;2.718;2022-12-11T16:20:37;26.83;;;14.83;;
23404;SDS011;11875;49.356;2.718;2022-12-11T16:23:05;29.43;;;15.53;;
23404;SDS011;11875;49.356;2.718;2022-12-11T16:25:31;28.00;;;14.03;;
23404;SDS011;11875;49.356;2.718;2022-12-11T16:27:58;23.07;;;12.57;;
23404;SDS011;11875;49.356;2.718;2022-12-11T16:30:25;25.43;;;13.87;;
23404;SDS011;11875;49.356;2.718;2022-12-11T16:32:52;29.93;;;15.50;;
23404;SDS011;11875;49.356;2.718;2022-12-11T16:35:19;30.27;;;14.13;;
23404;SDS011;11875;49.356;2.718;2022-12-11T16:37:48;35.33;;;18.13;;